Time;durP1;ratioP1;P1;durP2;ratioP2;P2;SDS_P1;SDS_P2;PMS_P1;PMS_P2;Temp;Humidity;BMP_temperature;BMP_pressure;BME280_temperature;BME280_humidity;BME280_pressure;Samples;Min_cycle;Max_cycle;Signal;HPM_P1;HPM_P2
2022/07/31 00:00:23;;;;;;;3.20;2.90;;;21.50;99.90;;;;;;5014302;28;20231;-52
2022/07/31 00:02:50;;;;;;;7.50;3.77;;;21.50;99.90;;;;;;5049238;28;20204;-51
2022/07/31 00:05:17;;;;;;;5.13;2.90;;;21.50;99.90;;;;;;5015672;28;20209;-55
2022/07/31 00:07:45;;;;;;;5.07;2.80;;;21.50;99.90;;;;;;5017230;28;20664;-54
2022/07/31 00:10:15;;;;;;;2.80;2.53;;;21.50;99.90;;;;;;5019565;28;20207;-50
2022/07/31 00:12:42;;;;;;;4.00;2.90;;;21.60;99.90;;;;;;5017310;28;20209;-51
2022/07/31 00:15:11;;;;;;;4.17;2.80;;;21.60;99.90;;;;;;5016426;28;20244;-52
2022/07/31 00:17:39;;;;;;;3.87;2.87;;;21.70;99.90;;;;;;5014261;28;20849;-50
2022/07/31 00:20:08;;;;;;;3.63;2.60;;;21.80;99.90;;;;;;5015218;28;20231;-52
2022/07/31 00:22:35;;;;;;;5.47;3.10;;;21.70;99.90;;;;;;5016518;28;20688;-53
2022/07/31 00:25:02;;;;;;;3.87;2.53;;;21.70;99.90;;;;;;5018190;28;20433;-52
2022/07/31 00:27:32;;;;;;;3.50;2.63;;;21.70;99.90;;;;;;5015422;28;20779;-51
2022/07/31 00:29:59;;;;;;;4.83;2.70;;;21.60;99.90;;;;;;5017864;28;20197;-53
2022/07/31 00:32:27;;;;;;;4.23;2.60;;;21.60;99.90;;;;;;5017048;28;20837;-52
2022/07/31 00:34:54;;;;;;;3.20;2.90;;;21.50;99.90;;;;;;5017783;28;20241;-51
2022/07/31 00:37:21;;;;;;;6.30;3.50;;;21.50;99.90;;;;;;5016310;28;20216;-52
2022/07/31 00:39:49;;;;;;;3.90;2.90;;;21.60;99.90;;;;;;5016045;28;20218;-52
2022/07/31 00:42:19;;;;;;;4.80;3.17;;;21.60;99.90;;;;;;5019145;28;20211;-51
2022/07/31 00:44:47;;;;;;;6.17;2.90;;;21.60;99.90;;;;;;5020710;28;20730;-52
2022/07/31 00:47:15;;;;;;;12.87;3.90;;;21.50;99.90;;;;;;5013312;28;20210;-52
2022/07/31 00:49:44;;;;;;;4.07;2.80;;;21.50;99.90;;;;;;5019638;28;20243;-50
2022/07/31 00:52:11;;;;;;;7.53;3.13;;;21.60;99.90;;;;;;5016220;28;20205;-51
2022/07/31 00:54:38;;;;;;;2.90;2.70;;;21.50;99.90;;;;;;5016875;28;20237;-50
2022/07/31 00:57:08;;;;;;;5.07;2.70;;;21.50;99.90;;;;;;5014562;28;20605;-52
2022/07/31 00:59:35;;;;;;;3.43;2.40;;;21.50;99.90;;;;;;5016716;28;20209;-50
2022/07/31 01:02:02;;;;;;;5.73;3.27;;;21.50;99.90;;;;;;5015296;28;20197;-51
2022/07/31 01:04:29;;;;;;;4.33;3.10;;;21.60;99.90;;;;;;5016728;28;20202;-51
2022/07/31 01:06:58;;;;;;;5.90;3.20;;;21.50;99.90;;;;;;5016798;28;20571;-51
2022/07/31 01:09:25;;;;;;;6.67;3.10;;;21.50;99.90;;;;;;5018770;28;20661;-50
2022/07/31 01:12:21;;;;;;;6.77;3.67;;;21.50;99.90;;;;;;5012839;28;20323;-50
2022/07/31 01:14:53;;;;;;;3.10;2.73;;;21.50;99.90;;;;;;5016300;28;20584;-52
2022/07/31 01:17:22;;;;;;;5.40;2.90;;;21.50;99.90;;;;;;5015670;28;20267;-52
2022/07/31 01:19:53;;;;;;;4.40;2.73;;;21.40;99.90;;;;;;5044802;28;20216;-50
2022/07/31 01:22:41;;;;;;;4.87;2.67;;;21.50;99.90;;;;;;5017887;28;20224;-50
2022/07/31 01:25:33;;;;;;;6.17;3.73;;;21.40;99.90;;;;;;5017470;28;20200;-50
2022/07/31 01:28:09;;;;;;;4.40;2.83;;;21.10;99.90;;;;;;5026743;28;20661;-50
2022/07/31 01:30:47;;;;;;;5.90;2.83;;;21.20;99.90;;;;;;5015920;28;20208;-51
2022/07/31 01:33:35;;;;;;;4.03;2.73;;;21.20;99.90;;;;;;5015583;28;20217;-50
2022/07/31 01:36:13;;;;;;;5.90;3.00;;;20.90;99.90;;;;;;5015388;28;20205;-49
2022/07/31 01:38:46;;;;;;;4.70;3.00;;;20.70;99.90;;;;;;5013050;28;20227;-52
2022/07/31 01:41:16;;;;;;;4.37;3.00;;;20.60;99.90;;;;;;5017916;28;20219;-52
2022/07/31 01:43:50;;;;;;;5.73;3.20;;;20.80;99.90;;;;;;5017737;28;20190;-53
2022/07/31 01:46:19;;;;;;;6.40;4.23;;;20.60;99.90;;;;;;5017383;28;20204;-50
2022/07/31 01:48:48;;;;;;;6.20;3.50;;;20.40;99.90;;;;;;5016206;28;20650;-51
2022/07/31 01:51:17;;;;;;;7.03;3.73;;;20.30;99.90;;;;;;5003580;28;20217;-51
2022/07/31 01:53:46;;;;;;;7.73;3.57;;;20.30;99.90;;;;;;4975561;28;20728;-52
2022/07/31 01:56:17;;;;;;;5.17;3.30;;;20.10;99.90;;;;;;4976771;28;20225;-52
2022/07/31 01:58:47;;;;;;;4.93;3.00;;;20.10;99.90;;;;;;4967314;28;20377;-51
2022/07/31 02:01:15;;;;;;;4.37;2.87;;;20.30;99.90;;;;;;4972636;28;20558;-49
2022/07/31 02:03:53;;;;;;;5.33;3.33;;;20.20;99.90;;;;;;4973595;28;20210;-49
2022/07/31 02:06:23;;;;;;;5.47;3.27;;;20.20;99.90;;;;;;4968969;28;20218;-50
2022/07/31 02:08:54;;;;;;;4.40;2.67;;;20.30;99.90;;;;;;4968982;28;20203;-50
2022/07/31 02:11:24;;;;;;;4.60;2.93;;;20.30;99.90;;;;;;4978158;28;20312;-50
2022/07/31 02:13:53;;;;;;;4.00;3.00;;;20.20;99.90;;;;;;4969248;28;20215;-50
2022/07/31 02:16:25;;;;;;;3.93;3.17;;;20.20;99.90;;;;;;4987360;28;20210;-51
2022/07/31 02:18:54;;;;;;;3.87;2.97;;;20.10;99.90;;;;;;4977435;28;20217;-50
2022/07/31 02:21:24;;;;;;;3.27;2.97;;;20.10;99.90;;;;;;4979804;28;20771;-50
2022/07/31 02:23:52;;;;;;;8.87;3.57;;;20.00;99.90;;;;;;4986592;28;20216;-50
2022/07/31 02:26:20;;;;;;;4.20;3.73;;;20.00;99.90;;;;;;4979314;28;20214;-52
2022/07/31 02:28:48;;;;;;;5.60;3.73;;;20.00;99.90;;;;;;4978110;28;20691;-50
2022/07/31 02:31:16;;;;;;;4.20;3.77;;;19.90;99.90;;;;;;4974038;28;20222;-51
2022/07/31 02:33:46;;;;;;;8.03;4.07;;;19.80;99.90;;;;;;4980375;28;20222;-52
2022/07/31 02:36:14;;;;;;;6.53;4.37;;;19.90;99.90;;;;;;4980965;28;20207;-51
2022/07/31 02:38:42;;;;;;;8.40;4.40;;;19.80;99.90;;;;;;4980657;28;20207;-49
2022/07/31 02:41:11;;;;;;;8.73;4.97;;;19.80;99.90;;;;;;4975464;28;20206;-52
2022/07/31 02:43:38;;;;;;;7.57;4.50;;;19.80;99.90;;;;;;4980931;28;20206;-51
2022/07/31 02:46:07;;;;;;;4.47;3.80;;;19.70;99.90;;;;;;4981025;28;20209;-50
2022/07/31 02:48:36;;;;;;;5.33;4.00;;;19.80;99.90;;;;;;4979018;28;20197;-50
2022/07/31 02:51:03;;;;;;;4.57;4.13;;;19.90;99.90;;;;;;5016812;28;20331;-50
2022/07/31 02:53:30;;;;;;;6.37;4.40;;;19.90;99.90;;;;;;5019886;28;20245;-50
2022/07/31 02:55:58;;;;;;;4.67;4.10;;;19.90;99.90;;;;;;5020858;28;20220;-50
2022/07/31 02:58:25;;;;;;;5.10;4.60;;;19.90;99.90;;;;;;5020102;28;20216;-51
2022/07/31 03:01:00;;;;;;;6.73;4.57;;;19.80;99.90;;;;;;5019655;28;20225;-51
2022/07/31 03:03:27;;;;;;;4.77;4.07;;;19.80;99.90;;;;;;5018802;28;20272;-49
2022/07/31 03:05:54;;;;;;;6.03;4.60;;;19.80;99.90;;;;;;5051170;28;20221;-49
2022/07/31 03:08:21;;;;;;;5.40;4.83;;;19.80;99.90;;;;;;5019820;28;20687;-49
2022/07/31 03:10:49;;;;;;;8.67;4.80;;;19.80;99.90;;;;;;5018832;28;20217;-49
2022/07/31 03:13:18;;;;;;;7.13;4.30;;;19.80;99.90;;;;;;5019945;28;20236;-49
2022/07/31 03:15:47;;;;;;;6.23;4.80;;;19.80;99.90;;;;;;5019587;28;20209;-49
2022/07/31 03:18:20;;;;;;;6.67;4.10;;;19.90;99.90;;;;;;5019010;28;20303;-49
2022/07/31 03:20:50;;;;;;;5.47;4.80;;;19.90;99.90;;;;;;5018433;28;20650;-50
2022/07/31 03:23:23;;;;;;;6.97;5.07;;;19.70;99.90;;;;;;5015179;28;20657;-51
2022/07/31 03:25:52;;;;;;;7.30;5.07;;;19.70;99.90;;;;;;5019104;28;20271;-51
2022/07/31 03:28:20;;;;;;;8.90;5.13;;;19.80;99.90;;;;;;5036061;28;20545;-51
2022/07/31 03:30:50;;;;;;;6.23;5.57;;;19.80;99.90;;;;;;5025941;28;20216;-50
2022/07/31 03:33:22;;;;;;;7.33;4.57;;;19.80;99.90;;;;;;5003316;28;20237;-50
2022/07/31 03:35:49;;;;;;;7.00;4.80;;;19.70;99.90;;;;;;5017792;28;20216;-52
2022/07/31 03:38:16;;;;;;;6.23;4.70;;;19.80;99.90;;;;;;5051140;28;20220;-50
2022/07/31 03:41:07;;;;;;;6.13;5.43;;;19.60;99.90;;;;;;5019802;28;20693;-51
2022/07/31 03:43:34;;;;;;;7.30;4.87;;;19.60;99.90;;;;;;5018776;28;20673;-50
2022/07/31 03:46:18;;;;;;;6.03;4.60;;;19.60;99.90;;;;;;5019617;28;20234;-51
2022/07/31 03:48:50;;;;;;;5.23;4.73;;;19.70;99.90;;;;;;5017615;28;20645;-51
2022/07/31 03:51:19;;;;;;;7.30;5.50;;;19.70;99.90;;;;;;5050188;28;20299;-51
2022/07/31 03:53:47;;;;;;;7.23;5.53;;;19.70;99.90;;;;;;5018845;28;20244;-54
2022/07/31 03:56:16;;;;;;;7.03;5.23;;;19.80;99.90;;;;;;5018860;28;20271;-48
2022/07/31 03:58:43;;;;;;;8.13;5.53;;;19.60;99.90;;;;;;5017686;28;20213;-50
2022/07/31 04:01:18;;;;;;;6.77;6.07;;;19.60;99.90;;;;;;5017415;28;20223;-52
2022/07/31 04:03:46;;;;;;;7.27;5.40;;;19.70;99.90;;;;;;5019231;28;20215;-52
2022/07/31 04:06:13;;;;;;;5.77;4.90;;;19.60;99.90;;;;;;5017356;28;20252;-50
2022/07/31 04:08:40;;;;;;;6.67;5.80;;;19.70;99.90;;;;;;5015474;28;20236;-51
2022/07/31 04:11:07;;;;;;;7.83;5.33;;;19.70;99.90;;;;;;5016922;28;20217;-51
2022/07/31 04:13:35;;;;;;;9.67;5.63;;;19.70;99.90;;;;;;5018258;28;20211;-51
2022/07/31 04:16:03;;;;;;;10.53;6.10;;;19.70;99.90;;;;;;5018069;28;20212;-50
2022/07/31 04:18:30;;;;;;;7.90;5.83;;;19.70;99.90;;;;;;5018917;28;20213;-50
2022/07/31 04:20:57;;;;;;;9.07;5.73;;;19.60;99.90;;;;;;5019846;28;20263;-50
2022/07/31 04:23:24;;;;;;;7.13;6.43;;;19.60;99.90;;;;;;5018823;28;20204;-51
2022/07/31 04:25:58;;;;;;;13.30;6.80;;;19.60;99.90;;;;;;5018295;28;20266;-52
2022/07/31 04:28:25;;;;;;;8.40;5.77;;;19.40;99.90;;;;;;5017585;28;20209;-51
2022/07/31 04:30:52;;;;;;;8.23;6.23;;;19.40;99.90;;;;;;5017996;28;20209;-52
2022/07/31 04:33:19;;;;;;;6.83;6.23;;;19.30;99.90;;;;;;5019597;28;20212;-51
2022/07/31 04:35:46;;;;;;;11.87;7.03;;;19.40;99.90;;;;;;5018635;28;20220;-50
2022/07/31 04:38:15;;;;;;;7.60;6.73;;;19.30;99.90;;;;;;5019873;28;20650;-50
2022/07/31 04:40:42;;;;;;;9.37;6.80;;;19.30;99.90;;;;;;5010895;28;20222;-51
2022/07/31 04:43:11;;;;;;;9.93;6.70;;;19.40;99.90;;;;;;5019309;28;20290;-50
2022/07/31 04:45:38;;;;;;;11.80;7.57;;;19.50;99.90;;;;;;5022801;28;20204;-51
2022/07/31 04:48:05;;;;;;;9.13;7.13;;;19.50;99.90;;;;;;5021764;28;20216;-50
2022/07/31 04:50:32;;;;;;;9.57;8.53;;;19.30;99.90;;;;;;5022020;28;20243;-50
2022/07/31 04:52:59;;;;;;;8.80;7.40;;;19.30;99.90;;;;;;5022922;28;20210;-50
2022/07/31 04:55:27;;;;;;;12.37;8.80;;;19.40;99.90;;;;;;5022478;28;20589;-50
2022/07/31 04:57:54;;;;;;;10.40;8.30;;;19.40;99.90;;;;;;5022179;28;20204;-51
2022/07/31 05:00:21;;;;;;;10.27;9.27;;;19.50;99.90;;;;;;5022639;28;20247;-50
2022/07/31 05:02:48;;;;;;;12.43;9.40;;;19.50;99.90;;;;;;5021920;28;20650;-52
2022/07/31 05:05:17;;;;;;;13.03;9.63;;;19.40;99.90;;;;;;5022200;28;20656;-49
2022/07/31 05:07:44;;;;;;;10.83;9.73;;;19.40;99.90;;;;;;5005953;28;20208;-51
2022/07/31 05:11:21;;;;;;;14.00;9.30;;;19.40;99.90;;;;;;5022279;28;20211;-52
2022/07/31 05:12:58;;;;;;;13.73;10.07;;;19.50;99.90;;;;;;5020378;28;20266;-51
2022/07/31 05:15:24;;;;;;;11.37;10.17;;;19.50;99.90;;;;;;5022874;28;20225;-49
2022/07/31 05:17:51;;;;;;;11.27;9.60;;;19.50;99.90;;;;;;5021161;28;20236;-50
2022/07/31 05:20:19;;;;;;;12.83;9.93;;;19.50;99.90;;;;;;5022450;28;20248;-50
2022/07/31 05:22:46;;;;;;;11.43;9.83;;;19.60;99.90;;;;;;5021172;28;20247;-52
2022/07/31 05:25:16;;;;;;;13.30;10.60;;;19.40;99.90;;;;;;5021111;28;20203;-51
2022/07/31 05:27:43;;;;;;;12.97;10.53;;;19.30;99.90;;;;;;5020869;28;20236;-49
2022/07/31 05:30:15;;;;;;;12.07;10.80;;;19.20;99.90;;;;;;5021405;28;20668;-50
2022/07/31 05:32:55;;;;;;;10.80;9.60;;;19.10;99.90;;;;;;5021287;28;20207;-50
2022/07/31 05:35:22;;;;;;;11.80;10.43;;;19.10;99.90;;;;;;5021147;28;20686;-51
2022/07/31 05:37:52;;;;;;;11.87;10.50;;;19.00;99.90;;;;;;5022293;28;20209;-50
2022/07/31 05:40:18;;;;;;;11.07;9.53;;;19.20;99.90;;;;;;5021679;28;20207;-51
2022/07/31 05:42:45;;;;;;;11.17;9.60;;;19.30;99.90;;;;;;5022236;28;20232;-50
2022/07/31 05:45:13;;;;;;;15.30;10.17;;;19.20;99.90;;;;;;5019774;28;20218;-51
2022/07/31 05:47:40;;;;;;;11.00;9.73;;;19.20;99.90;;;;;;5021631;28;20456;-51
2022/07/31 05:50:07;;;;;;;10.53;9.43;;;19.00;99.90;;;;;;5021613;28;20240;-50
2022/07/31 05:52:34;;;;;;;10.90;9.77;;;19.20;99.90;;;;;;5021297;28;20635;-52
2022/07/31 05:55:01;;;;;;;10.67;8.93;;;19.20;99.90;;;;;;5020401;28;20563;-50
2022/07/31 05:57:28;;;;;;;12.13;8.43;;;19.40;99.90;;;;;;5021566;28;20607;-51
2022/07/31 06:00:02;;;;;;;10.20;8.37;;;19.10;99.90;;;;;;5021522;28;20673;-50
2022/07/31 06:02:30;;;;;;;8.93;8.13;;;18.90;99.90;;;;;;5013975;28;20615;-52
2022/07/31 06:04:57;;;;;;;12.23;7.50;;;19.00;99.90;;;;;;5003796;28;20660;-51
2022/07/31 06:07:24;;;;;;;8.00;7.30;;;18.90;99.90;;;;;;5021510;28;20680;-50
2022/07/31 06:09:51;;;;;;;7.40;6.63;;;19.00;99.90;;;;;;5020737;28;20210;-50
2022/07/31 06:12:18;;;;;;;7.60;6.83;;;19.20;99.90;;;;;;5019071;28;20244;-50
2022/07/31 06:14:48;;;;;;;7.83;6.77;;;19.20;99.90;;;;;;5020813;28;20204;-51
2022/07/31 06:17:16;;;;;;;9.57;6.83;;;19.30;99.90;;;;;;5018410;28;20576;-51
2022/07/31 06:19:43;;;;;;;7.13;6.43;;;19.20;99.90;;;;;;5021627;28;20682;-52
2022/07/31 06:22:10;;;;;;;9.10;6.23;;;19.20;99.90;;;;;;5017615;28;20223;-50
2022/07/31 06:24:37;;;;;;;10.83;6.03;;;19.40;99.90;;;;;;5018967;28;20262;-50
2022/07/31 06:27:09;;;;;;;9.20;5.90;;;19.40;99.90;;;;;;5019020;28;20233;-52
2022/07/31 06:29:56;;;;;;;7.20;5.33;;;19.50;99.90;;;;;;5020369;28;20243;-51
2022/07/31 06:32:23;;;;;;;6.63;5.23;;;19.50;99.90;;;;;;5021052;28;20607;-50
2022/07/31 06:34:50;;;;;;;6.30;4.77;;;19.30;99.90;;;;;;5017084;28;20207;-50
2022/07/31 06:37:20;;;;;;;5.90;5.07;;;19.40;99.90;;;;;;5019626;28;20709;-50
2022/07/31 06:39:47;;;;;;;7.83;5.20;;;19.40;99.90;;;;;;5019714;28;20209;-51
2022/07/31 06:42:25;;;;;;;9.27;5.67;;;19.50;99.90;;;;;;5020297;28;20311;-52
2022/07/31 06:44:53;;;;;;;7.53;4.93;;;19.60;99.90;;;;;;5021583;28;20203;-49
2022/07/31 06:47:22;;;;;;;6.83;5.93;;;19.50;99.90;;;;;;5019754;28;20209;-51
2022/07/31 06:49:49;;;;;;;6.30;5.07;;;19.50;99.90;;;;;;5019847;28;20248;-52
2022/07/31 06:52:17;;;;;;;9.90;5.57;;;19.50;99.90;;;;;;5019771;28;20687;-51
2022/07/31 06:54:46;;;;;;;7.43;5.73;;;19.50;99.90;;;;;;5019880;28;20240;-51
2022/07/31 06:57:13;;;;;;;9.40;5.93;;;19.50;99.90;;;;;;5020161;28;20215;-51
2022/07/31 06:59:41;;;;;;;8.90;6.00;;;19.30;99.90;;;;;;5020174;28;20242;-50
2022/07/31 07:02:10;;;;;;;9.80;6.23;;;19.30;99.90;;;;;;5035233;28;20228;-50
2022/07/31 07:04:40;;;;;;;8.67;6.50;;;19.40;99.90;;;;;;5051329;28;20205;-52
2022/07/31 07:07:27;;;;;;;10.83;5.87;;;19.50;99.90;;;;;;5020236;28;20288;-51
2022/07/31 07:09:58;;;;;;;10.97;6.33;;;19.60;99.90;;;;;;5020562;28;20545;-52
2022/07/31 07:12:25;;;;;;;13.07;7.10;;;19.60;99.90;;;;;;5016318;28;20831;-50
2022/07/31 07:14:54;;;;;;;8.00;6.13;;;19.50;99.90;;;;;;5019855;28;20764;-51
2022/07/31 07:17:21;;;;;;;10.10;6.63;;;19.40;99.90;;;;;;5019884;28;20265;-50
2022/07/31 07:19:54;;;;;;;9.47;6.10;;;19.50;99.90;;;;;;5018539;28;20213;-51
2022/07/31 07:22:21;;;;;;;7.47;6.10;;;19.60;99.90;;;;;;5018574;28;20312;-50
2022/07/31 07:24:58;;;;;;;8.70;6.37;;;19.90;99.90;;;;;;5020573;28;20718;-51
2022/07/31 07:27:25;;;;;;;10.87;7.60;;;20.10;99.90;;;;;;5017452;28;20196;-50
2022/07/31 07:29:52;;;;;;;10.43;7.63;;;19.90;99.90;;;;;;5014785;28;20292;-52
2022/07/31 07:32:23;;;;;;;10.87;7.50;;;20.00;99.90;;;;;;5018114;28;20607;-52
2022/07/31 07:34:50;;;;;;;11.53;7.47;;;20.20;99.90;;;;;;5015435;28;20233;-50
2022/07/31 07:37:26;;;;;;;14.23;8.03;;;20.20;99.90;;;;;;5019826;28;20201;-51
2022/07/31 07:39:54;;;;;;;10.03;7.63;;;20.40;99.90;;;;;;5018246;28;20232;-52
2022/07/31 07:42:21;;;;;;;13.77;8.73;;;20.60;99.90;;;;;;5017665;28;20232;-51
2022/07/31 07:44:48;;;;;;;13.27;9.33;;;20.60;99.90;;;;;;5019932;28;20205;-50
2022/07/31 07:47:15;;;;;;;9.20;7.70;;;20.60;99.90;;;;;;5018950;28;20200;-50
2022/07/31 07:49:43;;;;;;;11.30;8.00;;;20.60;99.90;;;;;;5018839;28;20248;-51
2022/07/31 07:52:10;;;;;;;11.03;8.43;;;20.60;99.90;;;;;;5019759;28;20207;-50
2022/07/31 07:54:39;;;;;;;12.27;8.43;;;20.50;99.90;;;;;;5020407;28;20233;-51
2022/07/31 07:57:09;;;;;;;12.67;7.73;;;20.70;99.90;;;;;;5019536;28;20232;-50
2022/07/31 07:59:35;;;;;;;11.83;8.70;;;20.60;99.90;;;;;;5016403;28;20205;-51
2022/07/31 08:02:02;;;;;;;13.03;9.23;;;20.60;99.90;;;;;;5016995;28;20218;-50
2022/07/31 08:04:30;;;;;;;12.10;8.80;;;20.70;99.90;;;;;;5020325;28;20236;-52
2022/07/31 08:06:57;;;;;;;13.93;8.10;;;20.60;99.90;;;;;;5020026;28;20246;-49
2022/07/31 08:09:24;;;;;;;12.90;8.70;;;20.70;99.90;;;;;;5016985;28;20212;-50
2022/07/31 08:11:54;;;;;;;13.57;9.20;;;20.90;99.90;;;;;;5012810;28;20287;-51
2022/07/31 08:14:21;;;;;;;14.30;9.10;;;20.90;99.90;;;;;;5019248;28;20213;-52
2022/07/31 08:16:48;;;;;;;13.90;9.10;;;20.90;99.90;;;;;;5018602;28;20213;-52
2022/07/31 08:19:15;;;;;;;14.30;9.53;;;21.00;99.90;;;;;;5023184;28;20677;-52
2022/07/31 08:21:42;;;;;;;11.40;9.07;;;21.00;99.90;;;;;;5023584;28;20213;-51
2022/07/31 08:24:10;;;;;;;14.73;10.43;;;21.00;99.90;;;;;;5022494;28;20347;-50
2022/07/31 08:29:23;;;;;;;14.87;9.83;;;21.00;99.90;;;;;;5022001;28;20205;-51
2022/07/31 08:31:54;;;;;;;13.23;9.97;;;21.00;99.90;;;;;;5022794;28;20575;-51
2022/07/31 08:34:22;;;;;;;14.43;10.47;;;21.00;99.90;;;;;;5023118;28;20209;-52
2022/07/31 08:36:58;;;;;;;11.33;9.50;;;21.00;99.90;;;;;;5021757;28;20197;-51
2022/07/31 08:39:49;;;;;;;13.50;10.77;;;21.10;99.90;;;;;;5023558;28;20617;-53
2022/07/31 08:42:17;;;;;;;14.90;10.70;;;21.00;99.90;;;;;;5021314;28;20240;-51
2022/07/31 08:44:45;;;;;;;13.50;10.37;;;20.90;99.90;;;;;;5019361;28;20213;-52
2022/07/31 08:47:14;;;;;;;14.87;11.13;;;20.90;99.90;;;;;;5021047;28;20257;-52
2022/07/31 08:49:48;;;;;;;12.93;10.63;;;21.00;99.90;;;;;;5023052;28;20236;-51
2022/07/31 08:52:17;;;;;;;13.17;10.67;;;21.00;99.90;;;;;;5021387;28;20300;-52
2022/07/31 08:54:46;;;;;;;15.33;11.60;;;20.90;99.90;;;;;;5022191;28;20613;-52
2022/07/31 08:57:13;;;;;;;14.77;12.63;;;20.90;99.90;;;;;;5021843;28;20209;-53
2022/07/31 08:59:40;;;;;;;17.00;12.20;;;20.90;99.90;;;;;;5021420;28;20206;-53
2022/07/31 09:02:08;;;;;;;16.60;11.27;;;20.90;99.90;;;;;;5021722;28;20228;-51
2022/07/31 09:04:36;;;;;;;15.27;11.47;;;20.90;99.90;;;;;;5020946;28;20531;-50
2022/07/31 09:07:03;;;;;;;14.00;11.70;;;21.00;99.90;;;;;;5016236;28;20209;-51
2022/07/31 09:09:30;;;;;;;13.70;11.27;;;21.00;99.90;;;;;;5020557;28;20637;-51
2022/07/31 09:12:27;;;;;;;16.17;12.80;;;21.00;99.90;;;;;;5021766;28;20209;-51
2022/07/31 09:15:00;;;;;;;17.83;12.60;;;21.10;99.90;;;;;;5020670;28;20228;-51
2022/07/31 09:17:36;;;;;;;15.27;12.70;;;21.00;99.90;;;;;;5021012;28;20728;-51
2022/07/31 09:20:04;;;;;;;19.40;13.63;;;21.00;99.90;;;;;;5023183;28;20208;-52
2022/07/31 09:22:31;;;;;;;17.37;13.13;;;20.90;99.90;;;;;;5020382;28;20311;-50
2022/07/31 09:25:15;;;;;;;17.07;13.07;;;20.80;99.90;;;;;;5021835;28;20215;-51
2022/07/31 09:27:42;;;;;;;14.57;13.00;;;21.00;99.90;;;;;;5021394;28;20470;-53
2022/07/31 09:30:09;;;;;;;15.43;13.67;;;21.10;99.90;;;;;;5020267;28;20714;-52
2022/07/31 09:32:36;;;;;;;15.93;13.53;;;21.20;99.90;;;;;;5004628;28;20209;-52
2022/07/31 09:35:08;;;;;;;19.27;14.10;;;21.20;99.90;;;;;;5021892;28;20212;-51
2022/07/31 09:37:36;;;;;;;15.57;13.70;;;21.40;99.90;;;;;;5020792;28;20205;-51
2022/07/31 09:40:04;;;;;;;18.00;13.07;;;21.40;99.90;;;;;;5020113;28;20255;-51
2022/07/31 09:42:42;;;;;;;15.40;12.83;;;21.30;99.90;;;;;;5021359;28;20244;-53
2022/07/31 09:45:22;;;;;;;15.97;13.37;;;21.30;99.90;;;;;;5021110;28;20201;-51
2022/07/31 09:48:07;;;;;;;16.03;13.23;;;21.50;99.90;;;;;;5020894;28;20208;-51
2022/07/31 09:50:55;;;;;;;15.83;12.37;;;21.70;99.90;;;;;;5020906;28;20240;-51
2022/07/31 09:53:22;;;;;;;13.20;11.80;;;21.70;99.90;;;;;;5020055;28;20209;-49
2022/07/31 09:55:55;;;;;;;13.83;11.27;;;21.80;99.90;;;;;;5020247;28;20240;-51
2022/07/31 09:58:23;;;;;;;11.27;10.27;;;21.70;99.90;;;;;;5019902;28;20271;-52
2022/07/31 10:00:52;;;;;;;11.60;10.40;;;21.70;99.90;;;;;;5020854;28;20212;-51
2022/07/31 10:03:21;;;;;;;11.20;10.10;;;21.60;99.90;;;;;;5021177;28;20221;-50
2022/07/31 10:05:48;;;;;;;11.47;10.37;;;21.60;99.90;;;;;;5016791;28;20276;-50
2022/07/31 10:08:17;;;;;;;16.27;10.60;;;21.90;99.90;;;;;;5021384;28;20215;-51
2022/07/31 10:10:46;;;;;;;14.13;9.63;;;22.30;99.90;;;;;;5020276;28;20206;-50
2022/07/31 10:13:15;;;;;;;11.10;9.63;;;22.40;99.90;;;;;;5018916;28;20579;-51
2022/07/31 10:15:45;;;;;;;11.90;9.70;;;22.20;99.90;;;;;;5046000;28;20225;-51
2022/07/31 10:18:16;;;;;;;9.43;8.60;;;22.20;99.90;;;;;;5021022;28;20564;-50
2022/07/31 10:20:51;;;;;;;11.13;9.23;;;22.30;99.90;;;;;;5018528;28;20217;-50
2022/07/31 10:23:26;;;;;;;11.57;8.20;;;22.30;99.90;;;;;;5020026;28;20248;-51
2022/07/31 10:25:57;;;;;;;10.17;8.70;;;22.60;99.90;;;;;;5019326;28;20714;-50
2022/07/31 10:28:25;;;;;;;10.10;7.73;;;22.80;99.90;;;;;;5019204;28;20213;-53
2022/07/31 10:30:56;;;;;;;9.37;8.47;;;23.00;99.90;;;;;;5018909;28;20224;-53
2022/07/31 10:33:27;;;;;;;8.00;7.27;;;23.00;99.90;;;;;;5020661;28;20274;-52
2022/07/31 10:36:24;;;;;;;8.47;7.60;;;22.90;99.90;;;;;;5020665;28;20224;-53
2022/07/31 10:39:17;;;;;;;7.53;6.83;;;22.60;99.90;;;;;;5018767;28;20206;-52
2022/07/31 10:41:46;;;;;;;8.33;7.03;;;22.40;99.90;;;;;;5018600;28;20210;-51
2022/07/31 10:44:38;;;;;;;7.37;6.67;;;22.40;99.90;;;;;;5020324;28;20221;-52
2022/07/31 10:47:16;;;;;;;6.73;5.73;;;22.40;99.90;;;;;;5018838;28;20254;-53
2022/07/31 10:49:47;;;;;;;6.67;5.97;;;22.50;99.90;;;;;;5020536;28;20263;-52
2022/07/31 10:52:37;;;;;;;7.00;6.30;;;22.50;99.90;;;;;;5020278;28;20208;-52
2022/07/31 10:55:21;;;;;;;7.27;6.67;;;22.50;99.90;;;;;;5045806;28;20232;-53
2022/07/31 10:57:48;;;;;;;6.87;5.97;;;22.60;99.90;;;;;;5020158;28;20215;-53
2022/07/31 11:00:25;;;;;;;6.23;5.73;;;22.60;99.90;;;;;;5050495;28;20207;-50
2022/07/31 11:02:56;;;;;;;6.87;6.10;;;22.60;99.90;;;;;;5026128;28;20223;-53
2022/07/31 11:05:24;;;;;;;5.33;4.83;;;22.70;99.90;;;;;;5018559;28;20304;-50
2022/07/31 11:08:04;;;;;;;6.60;5.60;;;22.80;99.90;;;;;;5018902;28;20251;-51
2022/07/31 11:10:35;;;;;;;6.10;5.27;;;22.70;99.90;;;;;;5035573;28;20203;-50
2022/07/31 11:13:04;;;;;;;5.73;5.03;;;22.70;99.90;;;;;;5019433;28;20205;-51
2022/07/31 11:15:32;;;;;;;5.97;5.37;;;22.90;99.90;;;;;;5019766;28;20723;-51
2022/07/31 11:18:11;;;;;;;6.53;5.80;;;22.90;99.90;;;;;;5019542;28;20298;-52
2022/07/31 11:21:03;;;;;;;6.90;6.30;;;22.90;99.90;;;;;;5018634;28;20700;-51
2022/07/31 11:23:50;;;;;;;5.90;5.40;;;22.80;99.90;;;;;;5019392;28;20697;-51
2022/07/31 11:26:28;;;;;;;6.10;5.50;;;22.70;99.90;;;;;;5019751;28;20906;-53
2022/07/31 11:29:10;;;;;;;6.37;5.77;;;22.80;99.90;;;;;;5019066;28;20208;-52
2022/07/31 11:32:17;;;;;;;6.23;5.60;;;23.00;99.90;;;;;;5018754;28;20593;-54
2022/07/31 11:34:53;;;;;;;5.30;4.80;;;23.20;99.90;;;;;;5019405;28;20204;-52
2022/07/31 11:37:23;;;;;;;5.47;4.63;;;23.30;99.90;;;;;;5018630;28;20261;-53
2022/07/31 11:39:52;;;;;;;6.33;4.97;;;23.40;99.90;;;;;;5018243;28;20304;-51
2022/07/31 11:42:21;;;;;;;5.80;5.30;;;23.30;99.90;;;;;;5019006;28;20233;-51
2022/07/31 11:45:01;;;;;;;6.43;5.67;;;23.30;99.90;;;;;;5019861;28;20208;-52
2022/07/31 11:47:42;;;;;;;6.53;5.30;;;23.10;99.90;;;;;;5017980;28;20215;-51
2022/07/31 11:50:37;;;;;;;6.17;5.63;;;23.10;99.90;;;;;;5018554;28;20278;-51
2022/07/31 11:53:05;;;;;;;6.73;5.40;;;23.30;99.90;;;;;;5020823;28;20200;-54
2022/07/31 11:55:46;;;;;;;7.47;5.40;;;23.40;99.90;;;;;;5019512;28;20235;-53
2022/07/31 11:58:18;;;;;;;8.00;6.17;;;23.40;99.90;;;;;;5032737;28;20669;-51
2022/07/31 12:00:51;;;;;;;7.57;6.80;;;23.40;99.90;;;;;;5024855;28;20551;-51
2022/07/31 12:03:21;;;;;;;7.50;6.57;;;23.40;99.90;;;;;;5025415;28;20767;-52
2022/07/31 12:05:51;;;;;;;7.70;7.00;;;23.30;99.90;;;;;;5025454;28;20242;-52
2022/07/31 12:08:18;;;;;;;6.30;5.70;;;23.30;99.90;;;;;;5020332;28;20212;-52
2022/07/31 12:10:46;;;;;;;6.80;6.20;;;23.40;99.90;;;;;;5025823;28;20728;-52
2022/07/31 12:13:18;;;;;;;7.17;6.57;;;23.40;99.90;;;;;;5025368;28;20263;-50
2022/07/31 12:15:56;;;;;;;6.50;5.90;;;23.40;99.90;;;;;;5024727;28;20208;-52
2022/07/31 12:18:24;;;;;;;7.10;6.43;;;23.40;99.90;;;;;;5025100;28;20203;-51
2022/07/31 12:21:00;;;;;;;6.63;6.03;;;23.30;99.90;;;;;;5024173;28;20700;-51
2022/07/31 12:23:50;;;;;;;7.30;6.47;;;23.30;99.90;;;;;;5024523;28;20679;-51
2022/07/31 12:26:24;;;;;;;6.83;6.17;;;23.30;99.90;;;;;;5025286;28;20647;-51
2022/07/31 12:29:09;;;;;;;6.87;6.27;;;23.80;99.90;;;;;;5024859;28;20209;-51
2022/07/31 12:32:03;;;;;;;7.03;5.93;;;24.40;99.90;;;;;;5024237;28;20203;-51
2022/07/31 12:34:31;;;;;;;6.37;5.77;;;24.90;99.90;;;;;;5055460;28;20272;-55
2022/07/31 12:37:09;;;;;;;6.63;6.00;;;25.40;99.90;;;;;;5023185;28;20216;-51
2022/07/31 12:39:49;;;;;;;11.10;8.07;;;25.30;99.90;;;;;;5025835;28;20205;-53
2022/07/31 12:42:37;;;;;;;10.20;6.07;;;25.00;99.90;;;;;;5026020;28;20346;-54
2022/07/31 12:45:09;;;;;;;8.20;5.90;;;24.80;99.90;;;;;;5024953;28;20205;-51
2022/07/31 12:47:47;;;;;;;6.33;5.77;;;24.50;99.90;;;;;;5024500;28;20204;-52
2022/07/31 12:50:22;;;;;;;6.47;5.87;;;24.30;99.90;;;;;;5025613;28;20240;-53
2022/07/31 12:52:49;;;;;;;6.43;5.83;;;24.30;99.90;;;;;;5026332;28;20255;-54
2022/07/31 12:55:17;;;;;;;5.67;5.13;;;24.30;99.90;;;;;;5024504;28;20275;-52
2022/07/31 12:57:44;;;;;;;7.37;5.30;;;24.40;99.90;;;;;;5024986;28;20290;-52
2022/07/31 13:00:21;;;;;;;5.70;5.20;;;24.40;99.90;;;;;;5025587;28;20653;-52
2022/07/31 13:02:49;;;;;;;7.07;5.43;;;24.20;99.90;;;;;;5023563;28;20713;-51